sensor_id;sensor_type;location;lat;lon;timestamp;temperature;humidity
57829;DHT22;43657;52.698;6.314;2022-09-09T00:02:20;12.90;99.90
57829;DHT22;43657;52.698;6.314;2022-09-09T00:07:45;12.90;99.90
57829;DHT22;43657;52.698;6.314;2022-09-09T00:10:37;12.90;99.90
57829;DHT22;43657;52.698;6.314;2022-09-09T00:21:05;12.90;99.90
57829;DHT22;43657;52.698;6.314;2022-09-09T00:23:45;13.00;99.90
57829;DHT22;43657;52.698;6.314;2022-09-09T00:26:45;13.00;99.90
57829;DHT22;43657;52.698;6.314;2022-09-09T00:32:12;13.00;99.90
57829;DHT22;43657;52.698;6.314;2022-09-09T00:35:04;13.00;99.90
57829;DHT22;43657;52.698;6.314;2022-09-09T00:37:29;13.10;99.90
57829;DHT22;43657;52.698;6.314;2022-09-09T00:40:00;13.10;99.90
57829;DHT22;43657;52.698;6.314;2022-09-09T00:42:41;13.20;99.90
57829;DHT22;43657;52.698;6.314;2022-09-09T00:47:59;13.30;99.90
57829;DHT22;43657;52.698;6.314;2022-09-09T00:58:36;13.40;99.90
57829;DHT22;43657;52.698;6.314;2022-09-09T01:01:09;13.40;99.90
57829;DHT22;43657;52.698;6.314;2022-09-09T01:04:04;13.50;99.90
57829;DHT22;43657;52.698;6.314;2022-09-09T01:06:36;13.50;99.90
57829;DHT22;43657;52.698;6.314;2022-09-09T01:15:10;13.50;99.90
57829;DHT22;43657;52.698;6.314;2022-09-09T01:20:23;13.60;99.90
57829;DHT22;43657;52.698;6.314;2022-09-09T01:28:22;13.70;99.90
57829;DHT22;43657;52.698;6.314;2022-09-09T01:30:50;13.70;99.90
57829;DHT22;43657;52.698;6.314;2022-09-09T01:33:17;13.70;99.90
57829;DHT22;43657;52.698;6.314;2022-09-09T01:35:46;13.70;99.90
57829;DHT22;43657;52.698;6.314;2022-09-09T01:38:12;13.80;99.90
57829;DHT22;43657;52.698;6.314;2022-09-09T01:40:39;13.80;99.90
57829;DHT22;43657;52.698;6.314;2022-09-09T01:43:04;13.80;99.90
57829;DHT22;43657;52.698;6.314;2022-09-09T01:45:32;13.80;99.90
57829;DHT22;43657;52.698;6.314;2022-09-09T01:47:58;13.80;99.90
57829;DHT22;43657;52.698;6.314;2022-09-09T01:50:24;13.90;99.90
57829;DHT22;43657;52.698;6.314;2022-09-09T01:52:53;13.80;99.90
57829;DHT22;43657;52.698;6.314;2022-09-09T01:55:28;13.90;99.90
57829;DHT22;43657;52.698;6.314;2022-09-09T02:00:45;13.90;99.90
57829;DHT22;43657;52.698;6.314;2022-09-09T02:03:27;13.90;99.90
57829;DHT22;43657;52.698;6.314;2022-09-09T02:08:43;13.90;99.90
57829;DHT22;43657;52.698;6.314;2022-09-09T02:11:22;13.90;99.90
57829;DHT22;43657;52.698;6.314;2022-09-09T02:13:52;13.90;99.90
57829;DHT22;43657;52.698;6.314;2022-09-09T02:16:32;14.00;99.90
57829;DHT22;43657;52.698;6.314;2022-09-09T02:19:17;14.00;99.90
57829;DHT22;43657;52.698;6.314;2022-09-09T02:21:54;14.00;99.90
57829;DHT22;43657;52.698;6.314;2022-09-09T02:24:21;14.00;99.90
57829;DHT22;43657;52.698;6.314;2022-09-09T02:26:51;14.00;99.90
57829;DHT22;43657;52.698;6.314;2022-09-09T02:29:31;14.00;99.90
57829;DHT22;43657;52.698;6.314;2022-09-09T02:32:01;14.10;99.90
57829;DHT22;43657;52.698;6.314;2022-09-09T02:34:30;14.10;99.90
57829;DHT22;43657;52.698;6.314;2022-09-09T02:36:57;14.10;99.90
57829;DHT22;43657;52.698;6.314;2022-09-09T02:39:25;14.10;99.90
57829;DHT22;43657;52.698;6.314;2022-09-09T02:41:51;14.10;99.90
57829;DHT22;43657;52.698;6.314;2022-09-09T02:44:18;14.10;99.90
57829;DHT22;43657;52.698;6.314;2022-09-09T02:52:38;14.10;99.90
57829;DHT22;43657;52.698;6.314;2022-09-09T02:55:25;14.20;99.90
57829;DHT22;43657;52.698;6.314;2022-09-09T02:57:56;14.10;99.90
57829;DHT22;43657;52.698;6.314;2022-09-09T03:00:26;14.20;99.90
57829;DHT22;43657;52.698;6.314;2022-09-09T03:02:52;14.10;99.90
57829;DHT22;43657;52.698;6.314;2022-09-09T03:05:20;14.10;99.90
57829;DHT22;43657;52.698;6.314;2022-09-09T03:07:46;14.10;99.90
57829;DHT22;43657;52.698;6.314;2022-09-09T03:10:12;14.10;99.90
57829;DHT22;43657;52.698;6.314;2022-09-09T03:12:37;14.10;99.90
57829;DHT22;43657;52.698;6.314;2022-09-09T03:15:04;14.10;99.90
57829;DHT22;43657;52.698;6.314;2022-09-09T03:17:30;14.10;99.90
57829;DHT22;43657;52.698;6.314;2022-09-09T03:19:56;14.20;99.90
57829;DHT22;43657;52.698;6.314;2022-09-09T03:22:24;14.10;99.90
57829;DHT22;43657;52.698;6.314;2022-09-09T03:24:51;14.10;99.90
57829;DHT22;43657;52.698;6.314;2022-09-09T03:27:16;14.10;99.90
57829;DHT22;43657;52.698;6.314;2022-09-09T03:29:43;14.10;99.90
57829;DHT22;43657;52.698;6.314;2022-09-09T03:32:08;14.20;99.90
57829;DHT22;43657;52.698;6.314;2022-09-09T03:34:36;14.10;99.90
57829;DHT22;43657;52.698;6.314;2022-09-09T03:37:04;14.10;99.90
57829;DHT22;43657;52.698;6.314;2022-09-09T03:39:31;14.10;99.90
57829;DHT22;43657;52.698;6.314;2022-09-09T03:41:56;14.10;99.90
57829;DHT22;43657;52.698;6.314;2022-09-09T03:44:22;14.00;99.90
57829;DHT22;43657;52.698;6.314;2022-09-09T03:46:47;14.00;99.90
57829;DHT22;43657;52.698;6.314;2022-09-09T03:49:13;14.00;99.90
57829;DHT22;43657;52.698;6.314;2022-09-09T03:51:39;14.00;99.90
57829;DHT22;43657;52.698;6.314;2022-09-09T03:54:05;14.00;99.90
57829;DHT22;43657;52.698;6.314;2022-09-09T03:56:34;14.00;99.90
57829;DHT22;43657;52.698;6.314;2022-09-09T03:58:59;13.90;99.90
57829;DHT22;43657;52.698;6.314;2022-09-09T04:01:25;13.90;99.90
57829;DHT22;43657;52.698;6.314;2022-09-09T04:03:51;13.90;99.90
57829;DHT22;43657;52.698;6.314;2022-09-09T04:06:18;13.90;99.90
57829;DHT22;43657;52.698;6.314;2022-09-09T04:08:45;13.90;99.90
57829;DHT22;43657;52.698;6.314;2022-09-09T04:11:14;13.90;99.90
57829;DHT22;43657;52.698;6.314;2022-09-09T04:13:40;13.90;99.90
57829;DHT22;43657;52.698;6.314;2022-09-09T04:16:09;13.80;99.90
57829;DHT22;43657;52.698;6.314;2022-09-09T04:18:35;13.90;99.90
57829;DHT22;43657;52.698;6.314;2022-09-09T04:21:01;13.90;99.90
57829;DHT22;43657;52.698;6.314;2022-09-09T04:23:28;13.80;99.90
57829;DHT22;43657;52.698;6.314;2022-09-09T04:25:56;13.80;99.90
57829;DHT22;43657;52.698;6.314;2022-09-09T04:28:24;13.80;99.90
57829;DHT22;43657;52.698;6.314;2022-09-09T04:30:50;13.70;99.90
57829;DHT22;43657;52.698;6.314;2022-09-09T04:33:16;13.70;99.90
57829;DHT22;43657;52.698;6.314;2022-09-09T04:35:46;13.70;99.90
57829;DHT22;43657;52.698;6.314;2022-09-09T04:38:13;13.70;99.90
57829;DHT22;43657;52.698;6.314;2022-09-09T04:40:41;13.70;99.90
57829;DHT22;43657;52.698;6.314;2022-09-09T04:43:08;13.60;99.90
57829;DHT22;43657;52.698;6.314;2022-09-09T04:45:34;13.60;99.90
57829;DHT22;43657;52.698;6.314;2022-09-09T04:48:00;13.60;99.90
57829;DHT22;43657;52.698;6.314;2022-09-09T04:50:27;13.50;99.90
57829;DHT22;43657;52.698;6.314;2022-09-09T04:52:53;13.50;99.90
57829;DHT22;43657;52.698;6.314;2022-09-09T04:55:19;13.50;99.90
57829;DHT22;43657;52.698;6.314;2022-09-09T04:57:45;13.50;99.90
57829;DHT22;43657;52.698;6.314;2022-09-09T05:00:11;13.40;99.90
57829;DHT22;43657;52.698;6.314;2022-09-09T05:02:39;13.40;99.90
57829;DHT22;43657;52.698;6.314;2022-09-09T05:05:05;13.40;99.90
57829;DHT22;43657;52.698;6.314;2022-09-09T05:07:31;13.40;99.90
57829;DHT22;43657;52.698;6.314;2022-09-09T05:09:57;13.40;99.90
57829;DHT22;43657;52.698;6.314;2022-09-09T05:12:23;13.30;99.90
57829;DHT22;43657;52.698;6.314;2022-09-09T05:14:51;13.30;99.90
57829;DHT22;43657;52.698;6.314;2022-09-09T05:17:17;13.30;99.90
57829;DHT22;43657;52.698;6.314;2022-09-09T05:19:43;13.30;99.90
57829;DHT22;43657;52.698;6.314;2022-09-09T05:22:09;13.30;99.90
57829;DHT22;43657;52.698;6.314;2022-09-09T05:24:37;13.30;99.90
57829;DHT22;43657;52.698;6.314;2022-09-09T05:27:03;13.30;99.90
57829;DHT22;43657;52.698;6.314;2022-09-09T05:29:32;13.40;99.90
57829;DHT22;43657;52.698;6.314;2022-09-09T05:32:01;13.40;99.90
57829;DHT22;43657;52.698;6.314;2022-09-09T05:34:26;13.40;99.90
57829;DHT22;43657;52.698;6.314;2022-09-09T05:36:52;13.40;99.90
57829;DHT22;43657;52.698;6.314;2022-09-09T05:39:18;13.50;99.90
57829;DHT22;43657;52.698;6.314;2022-09-09T05:41:44;13.50;99.90
57829;DHT22;43657;52.698;6.314;2022-09-09T05:44:10;13.50;99.90
57829;DHT22;43657;52.698;6.314;2022-09-09T05:46:35;13.50;99.90
57829;DHT22;43657;52.698;6.314;2022-09-09T05:49:02;13.50;99.90
57829;DHT22;43657;52.698;6.314;2022-09-09T05:51:29;13.50;99.90
57829;DHT22;43657;52.698;6.314;2022-09-09T05:53:58;13.50;99.90
57829;DHT22;43657;52.698;6.314;2022-09-09T05:56:25;13.50;99.90
57829;DHT22;43657;52.698;6.314;2022-09-09T05:58:52;13.50;99.90
57829;DHT22;43657;52.698;6.314;2022-09-09T06:01:33;13.50;99.90
57829;DHT22;43657;52.698;6.314;2022-09-09T06:04:00;13.50;99.90
57829;DHT22;43657;52.698;6.314;2022-09-09T06:06:27;13.60;99.90
57829;DHT22;43657;52.698;6.314;2022-09-09T06:08:56;13.60;99.90
57829;DHT22;43657;52.698;6.314;2022-09-09T06:11:28;13.60;99.90
57829;DHT22;43657;52.698;6.314;2022-09-09T06:13:56;13.70;99.90
57829;DHT22;43657;52.698;6.314;2022-09-09T06:16:24;13.70;99.90
57829;DHT22;43657;52.698;6.314;2022-09-09T06:18:51;13.80;99.90
57829;DHT22;43657;52.698;6.314;2022-09-09T06:21:28;13.80;99.90
57829;DHT22;43657;52.698;6.314;2022-09-09T06:23:55;13.80;99.90
57829;DHT22;43657;52.698;6.314;2022-09-09T06:26:32;13.80;99.90
57829;DHT22;43657;52.698;6.314;2022-09-09T06:28:59;13.80;99.90
57829;DHT22;43657;52.698;6.314;2022-09-09T06:31:27;13.90;99.90
57829;DHT22;43657;52.698;6.314;2022-09-09T06:33:55;13.90;99.90
57829;DHT22;43657;52.698;6.314;2022-09-09T06:36:26;14.00;99.90
57829;DHT22;43657;52.698;6.314;2022-09-09T06:38:52;14.00;99.90
57829;DHT22;43657;52.698;6.314;2022-09-09T06:41:20;14.10;99.90
57829;DHT22;43657;52.698;6.314;2022-09-09T06:43:46;14.10;99.90
57829;DHT22;43657;52.698;6.314;2022-09-09T06:46:17;14.10;99.90
57829;DHT22;43657;52.698;6.314;2022-09-09T06:48:44;14.20;99.90
57829;DHT22;43657;52.698;6.314;2022-09-09T06:51:21;14.20;99.90
57829;DHT22;43657;52.698;6.314;2022-09-09T06:53:50;14.30;99.90
57829;DHT22;43657;52.698;6.314;2022-09-09T06:58:42;14.40;99.90
57829;DHT22;43657;52.698;6.314;2022-09-09T07:01:10;14.40;99.90
57829;DHT22;43657;52.698;6.314;2022-09-09T07:03:38;14.50;99.90
57829;DHT22;43657;52.698;6.314;2022-09-09T07:06:04;14.50;99.90
57829;DHT22;43657;52.698;6.314;2022-09-09T07:08:30;14.50;99.90
57829;DHT22;43657;52.698;6.314;2022-09-09T07:11:03;14.60;99.90
57829;DHT22;43657;52.698;6.314;2022-09-09T07:13:30;14.60;99.90
57829;DHT22;43657;52.698;6.314;2022-09-09T07:16:07;14.70;99.90
57829;DHT22;43657;52.698;6.314;2022-09-09T07:18:32;14.70;99.90
57829;DHT22;43657;52.698;6.314;2022-09-09T07:20:58;14.90;99.90
57829;DHT22;43657;52.698;6.314;2022-09-09T07:23:24;14.90;99.90
57829;DHT22;43657;52.698;6.314;2022-09-09T07:25:50;15.10;99.90
57829;DHT22;43657;52.698;6.314;2022-09-09T07:28:17;15.20;99.90
57829;DHT22;43657;52.698;6.314;2022-09-09T07:30:43;15.30;99.90
57829;DHT22;43657;52.698;6.314;2022-09-09T07:33:09;15.30;99.90
57829;DHT22;43657;52.698;6.314;2022-09-09T07:35:38;15.30;99.90
57829;DHT22;43657;52.698;6.314;2022-09-09T07:38:06;15.40;99.90
57829;DHT22;43657;52.698;6.314;2022-09-09T07:40:33;15.50;99.90
57829;DHT22;43657;52.698;6.314;2022-09-09T07:42:59;15.60;99.90
57829;DHT22;43657;52.698;6.314;2022-09-09T07:45:25;15.70;99.90
57829;DHT22;43657;52.698;6.314;2022-09-09T07:47:53;15.70;99.90
57829;DHT22;43657;52.698;6.314;2022-09-09T07:50:19;15.80;99.90
57829;DHT22;43657;52.698;6.314;2022-09-09T07:52:44;15.90;99.90
57829;DHT22;43657;52.698;6.314;2022-09-09T07:55:10;16.00;99.90
57829;DHT22;43657;52.698;6.314;2022-09-09T07:57:36;16.00;99.90
57829;DHT22;43657;52.698;6.314;2022-09-09T08:00:03;16.10;99.90
57829;DHT22;43657;52.698;6.314;2022-09-09T08:02:29;16.10;99.90
57829;DHT22;43657;52.698;6.314;2022-09-09T08:04:55;16.10;99.90
57829;DHT22;43657;52.698;6.314;2022-09-09T08:07:22;16.10;99.90
57829;DHT22;43657;52.698;6.314;2022-09-09T08:09:48;16.10;99.90
57829;DHT22;43657;52.698;6.314;2022-09-09T08:12:15;16.00;99.90
57829;DHT22;43657;52.698;6.314;2022-09-09T08:14:41;16.00;99.90
57829;DHT22;43657;52.698;6.314;2022-09-09T08:17:07;16.10;99.90
57829;DHT22;43657;52.698;6.314;2022-09-09T08:19:33;16.30;99.90
57829;DHT22;43657;52.698;6.314;2022-09-09T08:22:01;16.40;99.90
57829;DHT22;43657;52.698;6.314;2022-09-09T08:24:28;16.60;99.90
57829;DHT22;43657;52.698;6.314;2022-09-09T08:26:54;16.70;99.90
57829;DHT22;43657;52.698;6.314;2022-09-09T08:29:20;16.80;99.90
57829;DHT22;43657;52.698;6.314;2022-09-09T08:31:47;16.90;99.90
57829;DHT22;43657;52.698;6.314;2022-09-09T08:34:14;17.00;99.90
57829;DHT22;43657;52.698;6.314;2022-09-09T08:36:44;17.10;99.90
57829;DHT22;43657;52.698;6.314;2022-09-09T08:39:13;17.20;99.90
57829;DHT22;43657;52.698;6.314;2022-09-09T08:52:39;18.40;99.90
57829;DHT22;43657;52.698;6.314;2022-09-09T08:57:53;18.90;99.90
57829;DHT22;43657;52.698;6.314;2022-09-09T09:00:20;18.90;99.90
57829;DHT22;43657;52.698;6.314;2022-09-09T09:05:23;18.50;99.90
57829;DHT22;43657;52.698;6.314;2022-09-09T09:08:13;18.30;99.90
57829;DHT22;43657;52.698;6.314;2022-09-09T09:10:48;18.20;99.90
57829;DHT22;43657;52.698;6.314;2022-09-09T09:15:55;18.10;99.90
57829;DHT22;43657;52.698;6.314;2022-09-09T09:18:23;18.10;99.90
57829;DHT22;43657;52.698;6.314;2022-09-09T09:21:12;18.30;99.90
57829;DHT22;43657;52.698;6.314;2022-09-09T09:23:54;18.30;99.90
57829;DHT22;43657;52.698;6.314;2022-09-09T09:26:22;18.40;99.90
57829;DHT22;43657;52.698;6.314;2022-09-09T09:28:49;18.30;99.90
57829;DHT22;43657;52.698;6.314;2022-09-09T09:31:15;18.20;99.90
57829;DHT22;43657;52.698;6.314;2022-09-09T09:36:07;18.10;99.90
57829;DHT22;43657;52.698;6.314;2022-09-09T09:38:34;18.20;99.90
57829;DHT22;43657;52.698;6.314;2022-09-09T09:41:00;18.10;99.90
57829;DHT22;43657;52.698;6.314;2022-09-09T09:43:30;18.10;99.90
57829;DHT22;43657;52.698;6.314;2022-09-09T09:45:56;18.10;99.90
57829;DHT22;43657;52.698;6.314;2022-09-09T09:48:26;18.20;99.90
57829;DHT22;43657;52.698;6.314;2022-09-09T09:50:58;18.60;99.90
57829;DHT22;43657;52.698;6.314;2022-09-09T09:53:27;18.80;99.90
57829;DHT22;43657;52.698;6.314;2022-09-09T09:56:08;18.80;99.90
57829;DHT22;43657;52.698;6.314;2022-09-09T09:58:51;18.90;99.90
57829;DHT22;43657;52.698;6.314;2022-09-09T10:04:02;18.60;99.90
57829;DHT22;43657;52.698;6.314;2022-09-09T10:06:36;18.50;99.90
57829;DHT22;43657;52.698;6.314;2022-09-09T10:09:17;18.60;99.90
57829;DHT22;43657;52.698;6.314;2022-09-09T10:14:40;18.70;99.90
57829;DHT22;43657;52.698;6.314;2022-09-09T10:22:31;18.40;99.90
57829;DHT22;43657;52.698;6.314;2022-09-09T10:30:20;18.10;99.90
57829;DHT22;43657;52.698;6.314;2022-09-09T10:46:06;18.40;99.90
57829;DHT22;43657;52.698;6.314;2022-09-09T10:57:24;18.50;99.90
57829;DHT22;43657;52.698;6.314;2022-09-09T10:59:53;18.40;99.90
57829;DHT22;43657;52.698;6.314;2022-09-09T11:02:30;18.20;99.90
57829;DHT22;43657;52.698;6.314;2022-09-09T11:07:51;17.90;99.90
57829;DHT22;43657;52.698;6.314;2022-09-09T11:13:15;17.80;99.90
57829;DHT22;43657;52.698;6.314;2022-09-09T11:15:46;17.90;99.90
57829;DHT22;43657;52.698;6.314;2022-09-09T11:18:18;18.00;99.90
57829;DHT22;43657;52.698;6.314;2022-09-09T11:20:44;18.20;99.90
57829;DHT22;43657;52.698;6.314;2022-09-09T11:23:15;18.30;99.90
57829;DHT22;43657;52.698;6.314;2022-09-09T11:25:49;18.50;99.90
57829;DHT22;43657;52.698;6.314;2022-09-09T11:36:33;19.00;99.90
57829;DHT22;43657;52.698;6.314;2022-09-09T11:42:19;19.70;99.90
57829;DHT22;43657;52.698;6.314;2022-09-09T11:44:45;20.20;99.90
57829;DHT22;43657;52.698;6.314;2022-09-09T11:47:29;20.40;99.90
57829;DHT22;43657;52.698;6.314;2022-09-09T11:52:46;20.50;99.90
57829;DHT22;43657;52.698;6.314;2022-09-09T11:55:29;20.60;99.90
57829;DHT22;43657;52.698;6.314;2022-09-09T11:58:17;20.50;99.90
57829;DHT22;43657;52.698;6.314;2022-09-09T12:00:45;20.40;99.90
57829;DHT22;43657;52.698;6.314;2022-09-09T12:03:47;20.30;99.90
57829;DHT22;43657;52.698;6.314;2022-09-09T12:06:17;20.30;99.90
57829;DHT22;43657;52.698;6.314;2022-09-09T12:08:49;20.50;99.90
57829;DHT22;43657;52.698;6.314;2022-09-09T12:11:26;20.60;99.90
57829;DHT22;43657;52.698;6.314;2022-09-09T12:13:59;20.50;99.90
57829;DHT22;43657;52.698;6.314;2022-09-09T12:16:34;20.50;99.90
57829;DHT22;43657;52.698;6.314;2022-09-09T12:19:21;20.40;99.90
57829;DHT22;43657;52.698;6.314;2022-09-09T12:22:15;20.10;99.90
57829;DHT22;43657;52.698;6.314;2022-09-09T12:24:52;19.70;99.90
57829;DHT22;43657;52.698;6.314;2022-09-09T12:27:31;19.60;99.90
57829;DHT22;43657;52.698;6.314;2022-09-09T12:30:11;19.70;99.90
57829;DHT22;43657;52.698;6.314;2022-09-09T12:32:39;20.10;99.90
57829;DHT22;43657;52.698;6.314;2022-09-09T12:35:24;20.50;99.90
57829;DHT22;43657;52.698;6.314;2022-09-09T12:37:56;20.80;99.90
57829;DHT22;43657;52.698;6.314;2022-09-09T12:40:31;20.90;99.90
57829;DHT22;43657;52.698;6.314;2022-09-09T12:42:57;20.80;99.90
57829;DHT22;43657;52.698;6.314;2022-09-09T12:45:29;20.80;99.90
57829;DHT22;43657;52.698;6.314;2022-09-09T12:48:04;20.70;99.90
57829;DHT22;43657;52.698;6.314;2022-09-09T12:50:36;20.70;99.90
57829;DHT22;43657;52.698;6.314;2022-09-09T12:53:07;20.70;99.90
57829;DHT22;43657;52.698;6.314;2022-09-09T12:55:36;20.80;99.90
57829;DHT22;43657;52.698;6.314;2022-09-09T12:58:04;20.70;99.90
57829;DHT22;43657;52.698;6.314;2022-09-09T13:00:31;20.60;99.90
57829;DHT22;43657;52.698;6.314;2022-09-09T13:02:59;20.60;99.90
57829;DHT22;43657;52.698;6.314;2022-09-09T13:05:36;20.50;99.90
57829;DHT22;43657;52.698;6.314;2022-09-09T13:08:03;20.40;99.90
57829;DHT22;43657;52.698;6.314;2022-09-09T13:10:33;20.20;99.90
57829;DHT22;43657;52.698;6.314;2022-09-09T13:13:00;19.80;99.90
57829;DHT22;43657;52.698;6.314;2022-09-09T13:15:28;19.50;99.90
57829;DHT22;43657;52.698;6.314;2022-09-09T13:17:57;19.20;99.90
57829;DHT22;43657;52.698;6.314;2022-09-09T13:20:24;18.80;99.90
57829;DHT22;43657;52.698;6.314;2022-09-09T13:22:51;18.60;99.90
57829;DHT22;43657;52.698;6.314;2022-09-09T13:25:26;18.80;99.90
57829;DHT22;43657;52.698;6.314;2022-09-09T13:27:56;19.20;99.90
57829;DHT22;43657;52.698;6.314;2022-09-09T13:30:28;19.70;99.90
57829;DHT22;43657;52.698;6.314;2022-09-09T13:36:15;20.40;99.90
57829;DHT22;43657;52.698;6.314;2022-09-09T13:38:55;20.60;99.90
57829;DHT22;43657;52.698;6.314;2022-09-09T13:41:32;20.90;99.90
57829;DHT22;43657;52.698;6.314;2022-09-09T13:43:58;20.90;99.90
57829;DHT22;43657;52.698;6.314;2022-09-09T13:46:34;20.80;99.90
57829;DHT22;43657;52.698;6.314;2022-09-09T13:51:44;20.50;99.90
57829;DHT22;43657;52.698;6.314;2022-09-09T13:54:14;20.30;99.90
57829;DHT22;43657;52.698;6.314;2022-09-09T13:56:41;20.10;99.90
57829;DHT22;43657;52.698;6.314;2022-09-09T13:59:18;20.20;99.90
57829;DHT22;43657;52.698;6.314;2022-09-09T14:01:45;20.10;99.90
57829;DHT22;43657;52.698;6.314;2022-09-09T14:04:11;20.00;99.90
57829;DHT22;43657;52.698;6.314;2022-09-09T14:06:38;19.90;99.90
57829;DHT22;43657;52.698;6.314;2022-09-09T14:09:10;19.70;99.90
57829;DHT22;43657;52.698;6.314;2022-09-09T14:11:37;19.60;99.90
57829;DHT22;43657;52.698;6.314;2022-09-09T14:14:03;19.50;99.90
57829;DHT22;43657;52.698;6.314;2022-09-09T14:16:29;19.40;99.90
57829;DHT22;43657;52.698;6.314;2022-09-09T14:18:55;19.40;99.90
57829;DHT22;43657;52.698;6.314;2022-09-09T14:21:21;19.40;99.90
57829;DHT22;43657;52.698;6.314;2022-09-09T14:23:47;19.40;99.90
57829;DHT22;43657;52.698;6.314;2022-09-09T14:26:14;19.50;99.90
57829;DHT22;43657;52.698;6.314;2022-09-09T14:28:40;19.40;99.90
57829;DHT22;43657;52.698;6.314;2022-09-09T14:31:06;19.40;99.90
57829;DHT22;43657;52.698;6.314;2022-09-09T14:33:32;19.30;99.90
57829;DHT22;43657;52.698;6.314;2022-09-09T14:35:59;19.10;99.90
57829;DHT22;43657;52.698;6.314;2022-09-09T14:38:28;19.10;99.90
57829;DHT22;43657;52.698;6.314;2022-09-09T14:40:54;19.10;99.90
57829;DHT22;43657;52.698;6.314;2022-09-09T14:43:19;19.10;99.90
57829;DHT22;43657;52.698;6.314;2022-09-09T14:45:46;19.00;99.90
57829;DHT22;43657;52.698;6.314;2022-09-09T14:48:14;18.90;99.90
57829;DHT22;43657;52.698;6.314;2022-09-09T14:50:40;18.80;99.90
57829;DHT22;43657;52.698;6.314;2022-09-09T14:53:06;18.70;99.90
57829;DHT22;43657;52.698;6.314;2022-09-09T14:55:32;18.60;99.90
57829;DHT22;43657;52.698;6.314;2022-09-09T14:57:58;18.60;99.90
57829;DHT22;43657;52.698;6.314;2022-09-09T15:00:24;18.60;99.90
57829;DHT22;43657;52.698;6.314;2022-09-09T15:02:55;18.50;99.90
57829;DHT22;43657;52.698;6.314;2022-09-09T15:05:20;18.50;99.90
57829;DHT22;43657;52.698;6.314;2022-09-09T15:07:46;18.40;99.90
57829;DHT22;43657;52.698;6.314;2022-09-09T15:10:14;18.40;99.90
57829;DHT22;43657;52.698;6.314;2022-09-09T15:12:39;18.30;99.90
57829;DHT22;43657;52.698;6.314;2022-09-09T15:15:07;18.10;99.90
57829;DHT22;43657;52.698;6.314;2022-09-09T15:17:33;18.00;99.90
57829;DHT22;43657;52.698;6.314;2022-09-09T15:19:58;17.90;99.90
57829;DHT22;43657;52.698;6.314;2022-09-09T15:22:24;17.90;99.90
57829;DHT22;43657;52.698;6.314;2022-09-09T15:24:50;17.80;99.90
57829;DHT22;43657;52.698;6.314;2022-09-09T15:27:16;17.80;99.90
57829;DHT22;43657;52.698;6.314;2022-09-09T15:29:43;17.60;99.90
57829;DHT22;43657;52.698;6.314;2022-09-09T15:32:09;17.60;99.90
57829;DHT22;43657;52.698;6.314;2022-09-09T15:34:35;17.70;99.90
57829;DHT22;43657;52.698;6.314;2022-09-09T15:37:01;17.60;99.90
57829;DHT22;43657;52.698;6.314;2022-09-09T15:39:26;17.60;99.90
57829;DHT22;43657;52.698;6.314;2022-09-09T15:41:52;17.70;99.90
57829;DHT22;43657;52.698;6.314;2022-09-09T15:44:18;17.60;99.90
57829;DHT22;43657;52.698;6.314;2022-09-09T15:46:48;17.70;99.90
57829;DHT22;43657;52.698;6.314;2022-09-09T15:49:16;17.60;99.90
57829;DHT22;43657;52.698;6.314;2022-09-09T15:51:45;17.60;99.90
57829;DHT22;43657;52.698;6.314;2022-09-09T15:54:13;17.50;99.90
57829;DHT22;43657;52.698;6.314;2022-09-09T15:56:39;17.60;99.90
57829;DHT22;43657;52.698;6.314;2022-09-09T15:59:05;17.70;99.90
57829;DHT22;43657;52.698;6.314;2022-09-09T16:01:31;17.70;99.90
57829;DHT22;43657;52.698;6.314;2022-09-09T16:03:57;17.70;99.90
57829;DHT22;43657;52.698;6.314;2022-09-09T16:06:24;17.80;99.90
57829;DHT22;43657;52.698;6.314;2022-09-09T16:08:52;17.70;99.90
57829;DHT22;43657;52.698;6.314;2022-09-09T16:11:28;17.70;99.90
57829;DHT22;43657;52.698;6.314;2022-09-09T16:13:55;17.70;99.90
57829;DHT22;43657;52.698;6.314;2022-09-09T16:16:23;17.70;99.90
57829;DHT22;43657;52.698;6.314;2022-09-09T16:18:57;17.60;99.90
57829;DHT22;43657;52.698;6.314;2022-09-09T16:21:24;17.60;99.90
57829;DHT22;43657;52.698;6.314;2022-09-09T16:23:51;17.60;99.90
57829;DHT22;43657;52.698;6.314;2022-09-09T16:26:19;17.50;99.90
57829;DHT22;43657;52.698;6.314;2022-09-09T16:28:45;17.60;99.90
57829;DHT22;43657;52.698;6.314;2022-09-09T16:31:17;17.60;99.90
57829;DHT22;43657;52.698;6.314;2022-09-09T16:33:43;17.50;99.90
57829;DHT22;43657;52.698;6.314;2022-09-09T16:36:11;17.50;99.90
57829;DHT22;43657;52.698;6.314;2022-09-09T16:38:38;17.50;99.90
57829;DHT22;43657;52.698;6.314;2022-09-09T16:41:05;17.50;99.90
57829;DHT22;43657;52.698;6.314;2022-09-09T16:43:32;17.50;99.90
57829;DHT22;43657;52.698;6.314;2022-09-09T16:45:58;17.50;99.90
57829;DHT22;43657;52.698;6.314;2022-09-09T16:48:26;17.50;99.90
57829;DHT22;43657;52.698;6.314;2022-09-09T16:50:52;17.50;99.90
57829;DHT22;43657;52.698;6.314;2022-09-09T16:53:18;17.40;99.90
57829;DHT22;43657;52.698;6.314;2022-09-09T16:55:43;17.40;99.90
57829;DHT22;43657;52.698;6.314;2022-09-09T16:58:12;17.30;99.90
57829;DHT22;43657;52.698;6.314;2022-09-09T17:00:38;17.30;99.90
57829;DHT22;43657;52.698;6.314;2022-09-09T17:03:04;17.20;99.90
57829;DHT22;43657;52.698;6.314;2022-09-09T17:05:29;17.20;99.90
57829;DHT22;43657;52.698;6.314;2022-09-09T17:07:55;17.20;99.90
57829;DHT22;43657;52.698;6.314;2022-09-09T17:10:25;17.10;99.90
57829;DHT22;43657;52.698;6.314;2022-09-09T17:12:51;17.10;99.90
57829;DHT22;43657;52.698;6.314;2022-09-09T17:15:16;17.20;99.90
57829;DHT22;43657;52.698;6.314;2022-09-09T17:17:43;17.20;99.90
57829;DHT22;43657;52.698;6.314;2022-09-09T17:20:11;17.10;99.90
57829;DHT22;43657;52.698;6.314;2022-09-09T17:22:36;17.10;99.90
57829;DHT22;43657;52.698;6.314;2022-09-09T17:25:03;17.10;99.90
57829;DHT22;43657;52.698;6.314;2022-09-09T17:27:29;17.10;99.90
57829;DHT22;43657;52.698;6.314;2022-09-09T17:29:57;17.10;99.90
57829;DHT22;43657;52.698;6.314;2022-09-09T17:32:22;17.10;99.90
57829;DHT22;43657;52.698;6.314;2022-09-09T17:34:48;17.10;99.90
57829;DHT22;43657;52.698;6.314;2022-09-09T17:37:14;17.10;99.90
57829;DHT22;43657;52.698;6.314;2022-09-09T17:39:39;17.00;99.90
57829;DHT22;43657;52.698;6.314;2022-09-09T17:42:05;17.00;99.90
57829;DHT22;43657;52.698;6.314;2022-09-09T17:44:33;16.90;99.90
57829;DHT22;43657;52.698;6.314;2022-09-09T17:46:58;16.90;99.90
57829;DHT22;43657;52.698;6.314;2022-09-09T17:49:24;16.80;99.90
57829;DHT22;43657;52.698;6.314;2022-09-09T17:51:50;16.80;99.90
57829;DHT22;43657;52.698;6.314;2022-09-09T17:54:18;16.70;99.90
57829;DHT22;43657;52.698;6.314;2022-09-09T17:56:45;16.70;99.90
57829;DHT22;43657;52.698;6.314;2022-09-09T17:59:12;16.60;99.90
57829;DHT22;43657;52.698;6.314;2022-09-09T18:01:41;16.50;99.90